sensor_id;sensor_type;location;lat;lon;timestamp;temperature;humidity
8888;DHT22;4480;52.370;9.748;2022-11-20T00:00:01;-2.80;99.90
8888;DHT22;4480;52.370;9.748;2022-11-20T00:02:29;-2.80;99.90
8888;DHT22;4480;52.370;9.748;2022-11-20T00:04:56;-2.80;99.90
8888;DHT22;4480;52.370;9.748;2022-11-20T00:07:23;-2.80;99.90
8888;DHT22;4480;52.370;9.748;2022-11-20T00:09:50;-2.80;99.90
8888;DHT22;4480;52.370;9.748;2022-11-20T00:12:16;-2.70;99.90
8888;DHT22;4480;52.370;9.748;2022-11-20T00:14:43;-2.70;99.90
8888;DHT22;4480;52.370;9.748;2022-11-20T00:17:10;-2.70;99.90
8888;DHT22;4480;52.370;9.748;2022-11-20T00:19:38;-2.70;99.90
8888;DHT22;4480;52.370;9.748;2022-11-20T00:22:05;-2.70;99.90
8888;DHT22;4480;52.370;9.748;2022-11-20T00:24:31;-2.70;99.90
8888;DHT22;4480;52.370;9.748;2022-11-20T00:26:58;-2.80;99.90
8888;DHT22;4480;52.370;9.748;2022-11-20T00:29:25;-2.80;99.90
8888;DHT22;4480;52.370;9.748;2022-11-20T00:31:51;-2.80;99.90
8888;DHT22;4480;52.370;9.748;2022-11-20T00:34:18;-2.80;99.90
8888;DHT22;4480;52.370;9.748;2022-11-20T00:36:46;-2.80;99.90
8888;DHT22;4480;52.370;9.748;2022-11-20T00:39:13;-2.80;99.90
8888;DHT22;4480;52.370;9.748;2022-11-20T00:41:40;-2.80;99.90
8888;DHT22;4480;52.370;9.748;2022-11-20T00:44:07;-2.80;99.90
8888;DHT22;4480;52.370;9.748;2022-11-20T00:46:33;-2.80;99.90
8888;DHT22;4480;52.370;9.748;2022-11-20T00:49:00;-2.90;99.90
8888;DHT22;4480;52.370;9.748;2022-11-20T00:51:27;-2.90;99.90
8888;DHT22;4480;52.370;9.748;2022-11-20T00:53:57;-2.90;99.90
8888;DHT22;4480;52.370;9.748;2022-11-20T00:56:25;-2.90;99.90
8888;DHT22;4480;52.370;9.748;2022-11-20T00:58:52;-2.90;99.90
8888;DHT22;4480;52.370;9.748;2022-11-20T01:01:20;-2.90;99.90
8888;DHT22;4480;52.370;9.748;2022-11-20T01:03:51;-2.90;99.90
8888;DHT22;4480;52.370;9.748;2022-11-20T01:06:20;-3.00;99.90
8888;DHT22;4480;52.370;9.748;2022-11-20T01:08:48;-2.90;99.90
8888;DHT22;4480;52.370;9.748;2022-11-20T01:11:19;-2.90;99.90
8888;DHT22;4480;52.370;9.748;2022-11-20T01:13:48;-2.90;99.90
8888;DHT22;4480;52.370;9.748;2022-11-20T01:16:16;-2.90;99.90
8888;DHT22;4480;52.370;9.748;2022-11-20T01:18:46;-2.90;99.90
8888;DHT22;4480;52.370;9.748;2022-11-20T01:21:14;-2.80;99.90
8888;DHT22;4480;52.370;9.748;2022-11-20T01:23:42;-2.80;99.90
8888;DHT22;4480;52.370;9.748;2022-11-20T01:26:11;-2.80;99.90
8888;DHT22;4480;52.370;9.748;2022-11-20T01:28:40;-2.70;99.90
8888;DHT22;4480;52.370;9.748;2022-11-20T01:31:12;-2.70;99.90
8888;DHT22;4480;52.370;9.748;2022-11-20T01:33:39;-2.60;99.90
8888;DHT22;4480;52.370;9.748;2022-11-20T01:36:07;-2.60;99.90
8888;DHT22;4480;52.370;9.748;2022-11-20T01:38:35;-2.60;99.90
8888;DHT22;4480;52.370;9.748;2022-11-20T01:41:01;-2.60;99.90
8888;DHT22;4480;52.370;9.748;2022-11-20T01:43:28;-2.60;99.90
8888;DHT22;4480;52.370;9.748;2022-11-20T01:46:14;-2.60;99.90
8888;DHT22;4480;52.370;9.748;2022-11-20T01:48:46;-2.60;99.90
8888;DHT22;4480;52.370;9.748;2022-11-20T01:51:20;-2.60;99.90
8888;DHT22;4480;52.370;9.748;2022-11-20T01:53:48;-2.60;99.90
8888;DHT22;4480;52.370;9.748;2022-11-20T01:56:16;-2.60;99.90
8888;DHT22;4480;52.370;9.748;2022-11-20T01:58:48;-2.60;99.90
8888;DHT22;4480;52.370;9.748;2022-11-20T02:01:18;-2.60;99.90
8888;DHT22;4480;52.370;9.748;2022-11-20T02:03:45;-2.50;99.90
8888;DHT22;4480;52.370;9.748;2022-11-20T02:06:16;-2.50;99.90
8888;DHT22;4480;52.370;9.748;2022-11-20T02:08:44;-2.50;99.90
8888;DHT22;4480;52.370;9.748;2022-11-20T02:11:11;-2.40;99.90
8888;DHT22;4480;52.370;9.748;2022-11-20T02:13:39;-2.40;99.90
8888;DHT22;4480;52.370;9.748;2022-11-20T02:16:11;-2.40;99.90
8888;DHT22;4480;52.370;9.748;2022-11-20T02:18:40;-2.30;99.90
8888;DHT22;4480;52.370;9.748;2022-11-20T02:21:13;-2.30;99.90
8888;DHT22;4480;52.370;9.748;2022-11-20T02:23:57;-2.30;99.90
8888;DHT22;4480;52.370;9.748;2022-11-20T02:26:26;-2.20;99.90
8888;DHT22;4480;52.370;9.748;2022-11-20T02:28:54;-2.20;99.90
8888;DHT22;4480;52.370;9.748;2022-11-20T02:31:21;-2.20;99.90
8888;DHT22;4480;52.370;9.748;2022-11-20T02:33:53;-2.20;99.90
8888;DHT22;4480;52.370;9.748;2022-11-20T02:36:20;-2.20;99.90
8888;DHT22;4480;52.370;9.748;2022-11-20T02:38:47;-2.20;99.90
8888;DHT22;4480;52.370;9.748;2022-11-20T02:41:16;-2.10;99.90
8888;DHT22;4480;52.370;9.748;2022-11-20T02:43:43;-2.10;99.90
8888;DHT22;4480;52.370;9.748;2022-11-20T02:46:09;-2.10;99.90
8888;DHT22;4480;52.370;9.748;2022-11-20T02:48:36;-2.00;99.90
8888;DHT22;4480;52.370;9.748;2022-11-20T02:51:03;-2.00;99.90
8888;DHT22;4480;52.370;9.748;2022-11-20T02:53:30;-2.00;99.90
8888;DHT22;4480;52.370;9.748;2022-11-20T02:55:56;-2.00;99.90
8888;DHT22;4480;52.370;9.748;2022-11-20T02:58:25;-2.00;99.90
8888;DHT22;4480;52.370;9.748;2022-11-20T03:00:52;-2.00;99.90
8888;DHT22;4480;52.370;9.748;2022-11-20T03:03:19;-2.00;99.90
8888;DHT22;4480;52.370;9.748;2022-11-20T03:05:45;-2.00;99.90
8888;DHT22;4480;52.370;9.748;2022-11-20T03:08:12;-2.00;99.90
8888;DHT22;4480;52.370;9.748;2022-11-20T03:10:39;-2.00;99.90
8888;DHT22;4480;52.370;9.748;2022-11-20T03:13:06;-2.00;99.90
8888;DHT22;4480;52.370;9.748;2022-11-20T03:15:35;-2.00;99.90
8888;DHT22;4480;52.370;9.748;2022-11-20T03:18:03;-2.00;99.90
8888;DHT22;4480;52.370;9.748;2022-11-20T03:20:30;-1.90;99.90
8888;DHT22;4480;52.370;9.748;2022-11-20T03:22:58;-1.90;99.90
8888;DHT22;4480;52.370;9.748;2022-11-20T03:25:25;-1.90;99.90
8888;DHT22;4480;52.370;9.748;2022-11-20T03:27:52;-1.90;99.90
8888;DHT22;4480;52.370;9.748;2022-11-20T03:30:20;-1.90;99.90
8888;DHT22;4480;52.370;9.748;2022-11-20T03:32:48;-1.80;99.90
8888;DHT22;4480;52.370;9.748;2022-11-20T03:35:15;-1.80;99.90
8888;DHT22;4480;52.370;9.748;2022-11-20T03:37:41;-1.80;99.90
8888;DHT22;4480;52.370;9.748;2022-11-20T03:40:09;-1.80;99.90
8888;DHT22;4480;52.370;9.748;2022-11-20T03:42:36;-1.80;99.90
8888;DHT22;4480;52.370;9.748;2022-11-20T03:45:12;-1.70;99.90
8888;DHT22;4480;52.370;9.748;2022-11-20T03:47:39;-1.70;99.90
8888;DHT22;4480;52.370;9.748;2022-11-20T03:50:09;-1.70;99.90
8888;DHT22;4480;52.370;9.748;2022-11-20T03:52:36;-1.70;99.90
8888;DHT22;4480;52.370;9.748;2022-11-20T03:55:03;-1.70;99.90
8888;DHT22;4480;52.370;9.748;2022-11-20T03:57:30;-1.70;99.90
8888;DHT22;4480;52.370;9.748;2022-11-20T03:59:56;-1.70;99.90
8888;DHT22;4480;52.370;9.748;2022-11-20T04:02:23;-1.70;99.90
8888;DHT22;4480;52.370;9.748;2022-11-20T04:04:50;-1.70;99.90
8888;DHT22;4480;52.370;9.748;2022-11-20T04:10:34;-1.60;99.90
8888;DHT22;4480;52.370;9.748;2022-11-20T04:13:01;-1.60;99.90
8888;DHT22;4480;52.370;9.748;2022-11-20T04:15:27;-1.50;99.90
8888;DHT22;4480;52.370;9.748;2022-11-20T04:17:55;-1.50;99.90
8888;DHT22;4480;52.370;9.748;2022-11-20T04:23:04;-1.50;99.90
8888;DHT22;4480;52.370;9.748;2022-11-20T04:25:31;-1.50;99.90
8888;DHT22;4480;52.370;9.748;2022-11-20T04:27:59;-1.50;99.90
8888;DHT22;4480;52.370;9.748;2022-11-20T04:30:26;-1.50;99.90
8888;DHT22;4480;52.370;9.748;2022-11-20T04:32:53;-1.50;99.90
8888;DHT22;4480;52.370;9.748;2022-11-20T04:35:19;-1.50;99.90
8888;DHT22;4480;52.370;9.748;2022-11-20T04:37:46;-1.50;99.90
8888;DHT22;4480;52.370;9.748;2022-11-20T04:40:13;-1.50;99.90
8888;DHT22;4480;52.370;9.748;2022-11-20T04:42:39;-1.50;99.90
8888;DHT22;4480;52.370;9.748;2022-11-20T04:45:08;-1.50;99.90
8888;DHT22;4480;52.370;9.748;2022-11-20T04:47:35;-1.50;99.90
8888;DHT22;4480;52.370;9.748;2022-11-20T04:50:02;-1.40;99.90
8888;DHT22;4480;52.370;9.748;2022-11-20T04:52:29;-1.50;99.90
8888;DHT22;4480;52.370;9.748;2022-11-20T04:54:56;-1.50;99.90
8888;DHT22;4480;52.370;9.748;2022-11-20T04:57:22;-1.40;99.90
8888;DHT22;4480;52.370;9.748;2022-11-20T04:59:49;-1.50;99.90
8888;DHT22;4480;52.370;9.748;2022-11-20T05:02:17;-1.40;99.90
8888;DHT22;4480;52.370;9.748;2022-11-20T05:04:44;-1.50;99.90
8888;DHT22;4480;52.370;9.748;2022-11-20T05:07:11;-1.40;99.90
8888;DHT22;4480;52.370;9.748;2022-11-20T05:09:38;-1.40;99.90
8888;DHT22;4480;52.370;9.748;2022-11-20T05:12:06;-1.40;99.90
8888;DHT22;4480;52.370;9.748;2022-11-20T05:14:33;-1.40;99.90
8888;DHT22;4480;52.370;9.748;2022-11-20T05:17:00;-1.40;99.90
8888;DHT22;4480;52.370;9.748;2022-11-20T05:19:28;-1.30;99.90
8888;DHT22;4480;52.370;9.748;2022-11-20T05:21:56;-1.30;99.90
8888;DHT22;4480;52.370;9.748;2022-11-20T05:24:22;-1.30;99.90
8888;DHT22;4480;52.370;9.748;2022-11-20T05:26:49;-1.30;99.90
8888;DHT22;4480;52.370;9.748;2022-11-20T05:29:16;-1.30;99.90
8888;DHT22;4480;52.370;9.748;2022-11-20T05:31:43;-1.30;99.90
8888;DHT22;4480;52.370;9.748;2022-11-20T05:34:09;-1.30;99.90
8888;DHT22;4480;52.370;9.748;2022-11-20T05:36:37;-1.30;99.90
8888;DHT22;4480;52.370;9.748;2022-11-20T05:39:04;-1.30;99.90
8888;DHT22;4480;52.370;9.748;2022-11-20T05:41:33;-1.30;99.90
8888;DHT22;4480;52.370;9.748;2022-11-20T05:43:59;-1.30;99.90
8888;DHT22;4480;52.370;9.748;2022-11-20T05:46:27;-1.30;99.90
8888;DHT22;4480;52.370;9.748;2022-11-20T05:48:53;-1.30;99.90
8888;DHT22;4480;52.370;9.748;2022-11-20T05:51:20;-1.30;99.90
8888;DHT22;4480;52.370;9.748;2022-11-20T05:53:48;-1.30;99.90
8888;DHT22;4480;52.370;9.748;2022-11-20T05:56:17;-1.30;99.90
8888;DHT22;4480;52.370;9.748;2022-11-20T05:58:44;-1.40;99.90
8888;DHT22;4480;52.370;9.748;2022-11-20T06:01:13;-1.30;99.90
8888;DHT22;4480;52.370;9.748;2022-11-20T06:03:41;-1.30;99.90
8888;DHT22;4480;52.370;9.748;2022-11-20T06:06:11;-1.30;99.90
8888;DHT22;4480;52.370;9.748;2022-11-20T06:08:38;-1.20;99.90
8888;DHT22;4480;52.370;9.748;2022-11-20T06:11:08;-1.30;99.90
8888;DHT22;4480;52.370;9.748;2022-11-20T06:13:35;-1.20;99.90
8888;DHT22;4480;52.370;9.748;2022-11-20T06:16:03;-1.30;99.90
8888;DHT22;4480;52.370;9.748;2022-11-20T06:18:30;-1.30;99.90
8888;DHT22;4480;52.370;9.748;2022-11-20T06:21:02;-1.20;99.90
8888;DHT22;4480;52.370;9.748;2022-11-20T06:23:30;-1.20;99.90
8888;DHT22;4480;52.370;9.748;2022-11-20T06:25:57;-1.20;99.90
8888;DHT22;4480;52.370;9.748;2022-11-20T06:28:25;-1.20;99.90
8888;DHT22;4480;52.370;9.748;2022-11-20T06:30:52;-1.20;99.90
8888;DHT22;4480;52.370;9.748;2022-11-20T06:33:18;-1.20;99.90
8888;DHT22;4480;52.370;9.748;2022-11-20T06:35:45;-1.20;99.90
8888;DHT22;4480;52.370;9.748;2022-11-20T06:38:12;-1.30;99.90
8888;DHT22;4480;52.370;9.748;2022-11-20T06:40:40;-1.30;99.90
8888;DHT22;4480;52.370;9.748;2022-11-20T06:43:07;-1.30;99.90
8888;DHT22;4480;52.370;9.748;2022-11-20T06:45:35;-1.30;99.90
8888;DHT22;4480;52.370;9.748;2022-11-20T06:48:02;-1.30;99.90
8888;DHT22;4480;52.370;9.748;2022-11-20T06:50:29;-1.20;99.90
8888;DHT22;4480;52.370;9.748;2022-11-20T06:52:55;-1.20;99.90
8888;DHT22;4480;52.370;9.748;2022-11-20T06:55:22;-1.20;99.90
8888;DHT22;4480;52.370;9.748;2022-11-20T06:57:50;-1.10;99.90
8888;DHT22;4480;52.370;9.748;2022-11-20T07:00:17;-1.10;99.90
8888;DHT22;4480;52.370;9.748;2022-11-20T07:02:45;-1.10;99.90
8888;DHT22;4480;52.370;9.748;2022-11-20T07:05:12;-1.00;99.90
8888;DHT22;4480;52.370;9.748;2022-11-20T07:07:39;-1.00;99.90
8888;DHT22;4480;52.370;9.748;2022-11-20T07:10:06;-1.00;99.90
8888;DHT22;4480;52.370;9.748;2022-11-20T07:12:33;-1.10;99.90
8888;DHT22;4480;52.370;9.748;2022-11-20T07:15:00;-1.10;99.90
8888;DHT22;4480;52.370;9.748;2022-11-20T07:17:26;-1.10;99.90
8888;DHT22;4480;52.370;9.748;2022-11-20T07:19:55;-1.10;99.90
8888;DHT22;4480;52.370;9.748;2022-11-20T07:22:21;-1.10;99.90
8888;DHT22;4480;52.370;9.748;2022-11-20T07:24:48;-1.10;99.90
8888;DHT22;4480;52.370;9.748;2022-11-20T07:27:15;-1.10;99.90
8888;DHT22;4480;52.370;9.748;2022-11-20T07:29:41;-1.10;99.90
8888;DHT22;4480;52.370;9.748;2022-11-20T07:32:08;-1.00;99.90
8888;DHT22;4480;52.370;9.748;2022-11-20T07:34:35;-1.00;99.90
8888;DHT22;4480;52.370;9.748;2022-11-20T07:37:03;-1.00;99.90
8888;DHT22;4480;52.370;9.748;2022-11-20T07:39:29;-0.90;99.90
8888;DHT22;4480;52.370;9.748;2022-11-20T07:41:56;-0.90;99.90
8888;DHT22;4480;52.370;9.748;2022-11-20T07:44:23;-0.90;99.90
8888;DHT22;4480;52.370;9.748;2022-11-20T07:46:50;-0.80;99.90
8888;DHT22;4480;52.370;9.748;2022-11-20T07:49:16;-0.80;99.90
8888;DHT22;4480;52.370;9.748;2022-11-20T07:51:43;-0.80;99.90
8888;DHT22;4480;52.370;9.748;2022-11-20T07:54:11;-0.80;99.90
8888;DHT22;4480;52.370;9.748;2022-11-20T07:56:38;-0.70;99.90
8888;DHT22;4480;52.370;9.748;2022-11-20T07:59:04;-0.70;99.90
8888;DHT22;4480;52.370;9.748;2022-11-20T08:01:31;-0.70;99.90
8888;DHT22;4480;52.370;9.748;2022-11-20T08:03:58;-0.60;99.90
8888;DHT22;4480;52.370;9.748;2022-11-20T08:06:25;-0.60;99.90
8888;DHT22;4480;52.370;9.748;2022-11-20T08:08:52;-0.60;99.90
8888;DHT22;4480;52.370;9.748;2022-11-20T08:11:20;-0.60;99.90
8888;DHT22;4480;52.370;9.748;2022-11-20T08:14:04;-0.60;99.90
8888;DHT22;4480;52.370;9.748;2022-11-20T08:16:42;-0.60;99.90
8888;DHT22;4480;52.370;9.748;2022-11-20T08:19:09;-0.60;99.90
8888;DHT22;4480;52.370;9.748;2022-11-20T08:21:36;-0.60;99.90
8888;DHT22;4480;52.370;9.748;2022-11-20T08:24:04;-0.60;99.90
8888;DHT22;4480;52.370;9.748;2022-11-20T08:26:32;-0.60;99.90
8888;DHT22;4480;52.370;9.748;2022-11-20T08:28:59;-0.60;99.90
8888;DHT22;4480;52.370;9.748;2022-11-20T08:31:27;-0.60;99.90
8888;DHT22;4480;52.370;9.748;2022-11-20T08:33:54;-0.50;99.90
8888;DHT22;4480;52.370;9.748;2022-11-20T08:36:21;-0.50;99.90
8888;DHT22;4480;52.370;9.748;2022-11-20T08:38:48;-0.40;99.90
8888;DHT22;4480;52.370;9.748;2022-11-20T08:41:15;-0.40;99.90
8888;DHT22;4480;52.370;9.748;2022-11-20T08:44:00;-0.40;99.90
8888;DHT22;4480;52.370;9.748;2022-11-20T08:46:31;-0.30;99.90
8888;DHT22;4480;52.370;9.748;2022-11-20T08:48:59;-0.20;99.90
8888;DHT22;4480;52.370;9.748;2022-11-20T08:51:26;-0.10;99.90
8888;DHT22;4480;52.370;9.748;2022-11-20T08:53:52;0.00;99.90
8888;DHT22;4480;52.370;9.748;2022-11-20T08:56:19;0.00;99.90
8888;DHT22;4480;52.370;9.748;2022-11-20T08:58:46;0.10;99.90
8888;DHT22;4480;52.370;9.748;2022-11-20T09:01:14;0.20;99.90
8888;DHT22;4480;52.370;9.748;2022-11-20T09:03:41;0.30;99.90
8888;DHT22;4480;52.370;9.748;2022-11-20T09:06:08;0.30;99.90
8888;DHT22;4480;52.370;9.748;2022-11-20T09:08:35;0.40;99.90
8888;DHT22;4480;52.370;9.748;2022-11-20T09:11:02;0.50;99.90
8888;DHT22;4480;52.370;9.748;2022-11-20T09:13:30;0.50;99.90
8888;DHT22;4480;52.370;9.748;2022-11-20T09:15:58;0.50;99.90
8888;DHT22;4480;52.370;9.748;2022-11-20T09:18:27;0.60;99.90
8888;DHT22;4480;52.370;9.748;2022-11-20T09:20:56;0.60;99.90
8888;DHT22;4480;52.370;9.748;2022-11-20T09:23:24;0.60;99.90
8888;DHT22;4480;52.370;9.748;2022-11-20T09:25:50;0.60;99.90
8888;DHT22;4480;52.370;9.748;2022-11-20T09:28:18;0.70;99.90
8888;DHT22;4480;52.370;9.748;2022-11-20T09:30:44;0.80;99.90
8888;DHT22;4480;52.370;9.748;2022-11-20T09:33:11;0.80;99.90
8888;DHT22;4480;52.370;9.748;2022-11-20T09:35:39;0.90;99.90
8888;DHT22;4480;52.370;9.748;2022-11-20T09:38:06;0.90;99.90
8888;DHT22;4480;52.370;9.748;2022-11-20T09:40:35;0.90;99.90
8888;DHT22;4480;52.370;9.748;2022-11-20T09:43:11;1.00;99.90
8888;DHT22;4480;52.370;9.748;2022-11-20T09:45:48;1.00;99.90
8888;DHT22;4480;52.370;9.748;2022-11-20T09:48:40;1.10;99.90
8888;DHT22;4480;52.370;9.748;2022-11-20T09:51:16;1.10;99.90
8888;DHT22;4480;52.370;9.748;2022-11-20T09:53:56;1.30;99.90
8888;DHT22;4480;52.370;9.748;2022-11-20T09:56:26;1.40;99.90
8888;DHT22;4480;52.370;9.748;2022-11-20T09:58:57;1.60;99.90
8888;DHT22;4480;52.370;9.748;2022-11-20T10:01:29;1.70;99.90
8888;DHT22;4480;52.370;9.748;2022-11-20T10:04:01;1.80;99.90
8888;DHT22;4480;52.370;9.748;2022-11-20T10:06:32;1.90;99.90
8888;DHT22;4480;52.370;9.748;2022-11-20T10:09:13;2.00;99.90
8888;DHT22;4480;52.370;9.748;2022-11-20T10:11:48;2.00;99.90
8888;DHT22;4480;52.370;9.748;2022-11-20T10:14:26;2.00;99.90
8888;DHT22;4480;52.370;9.748;2022-11-20T10:17:03;2.10;99.90
8888;DHT22;4480;52.370;9.748;2022-11-20T10:19:47;2.10;99.90
8888;DHT22;4480;52.370;9.748;2022-11-20T10:22:30;2.10;99.90
8888;DHT22;4480;52.370;9.748;2022-11-20T10:25:05;2.20;99.90
8888;DHT22;4480;52.370;9.748;2022-11-20T10:27:44;2.20;99.90
8888;DHT22;4480;52.370;9.748;2022-11-20T10:30:17;2.10;99.60
8888;DHT22;4480;52.370;9.748;2022-11-20T10:32:47;2.20;99.70
8888;DHT22;4480;52.370;9.748;2022-11-20T10:35:20;2.20;99.30
8888;DHT22;4480;52.370;9.748;2022-11-20T10:37:51;2.20;98.90
8888;DHT22;4480;52.370;9.748;2022-11-20T10:40:25;2.30;98.60
8888;DHT22;4480;52.370;9.748;2022-11-20T10:42:56;2.40;98.50
8888;DHT22;4480;52.370;9.748;2022-11-20T10:45:33;2.50;98.10
8888;DHT22;4480;52.370;9.748;2022-11-20T10:48:12;2.50;97.80
8888;DHT22;4480;52.370;9.748;2022-11-20T10:50:49;2.60;97.80
8888;DHT22;4480;52.370;9.748;2022-11-20T10:53:40;2.70;97.50
8888;DHT22;4480;52.370;9.748;2022-11-20T10:56:17;2.70;96.70
8888;DHT22;4480;52.370;9.748;2022-11-20T10:58:52;2.60;96.10
8888;DHT22;4480;52.370;9.748;2022-11-20T11:01:21;2.60;96.10
8888;DHT22;4480;52.370;9.748;2022-11-20T11:03:49;2.50;95.60
8888;DHT22;4480;52.370;9.748;2022-11-20T11:06:21;2.50;95.40
8888;DHT22;4480;52.370;9.748;2022-11-20T11:08:50;2.50;95.30
8888;DHT22;4480;52.370;9.748;2022-11-20T11:11:22;2.50;95.20
8888;DHT22;4480;52.370;9.748;2022-11-20T11:13:49;2.50;95.10
8888;DHT22;4480;52.370;9.748;2022-11-20T11:16:21;2.60;94.70
8888;DHT22;4480;52.370;9.748;2022-11-20T11:18:48;2.60;94.20
8888;DHT22;4480;52.370;9.748;2022-11-20T11:21:21;2.60;94.10
8888;DHT22;4480;52.370;9.748;2022-11-20T11:23:58;2.60;93.60
8888;DHT22;4480;52.370;9.748;2022-11-20T11:26:25;2.60;93.50
8888;DHT22;4480;52.370;9.748;2022-11-20T11:28:54;2.50;93.30
8888;DHT22;4480;52.370;9.748;2022-11-20T11:31:25;2.50;93.50
8888;DHT22;4480;52.370;9.748;2022-11-20T11:34:03;2.50;93.40
8888;DHT22;4480;52.370;9.748;2022-11-20T11:36:30;2.50;93.20
8888;DHT22;4480;52.370;9.748;2022-11-20T11:39:01;2.60;93.20
8888;DHT22;4480;52.370;9.748;2022-11-20T11:41:31;2.60;93.20
8888;DHT22;4480;52.370;9.748;2022-11-20T11:44:03;2.60;93.00
8888;DHT22;4480;52.370;9.748;2022-11-20T11:46:57;2.70;92.90
8888;DHT22;4480;52.370;9.748;2022-11-20T11:49:24;2.70;92.70
8888;DHT22;4480;52.370;9.748;2022-11-20T11:52:02;2.70;92.60
8888;DHT22;4480;52.370;9.748;2022-11-20T11:54:36;2.70;92.10
8888;DHT22;4480;52.370;9.748;2022-11-20T11:57:09;2.60;91.90
8888;DHT22;4480;52.370;9.748;2022-11-20T11:59:44;2.50;91.70
8888;DHT22;4480;52.370;9.748;2022-11-20T12:02:24;2.30;91.40
8888;DHT22;4480;52.370;9.748;2022-11-20T12:04:56;2.20;91.80
8888;DHT22;4480;52.370;9.748;2022-11-20T12:07:34;2.10;92.30
8888;DHT22;4480;52.370;9.748;2022-11-20T12:10:08;2.20;92.60
8888;DHT22;4480;52.370;9.748;2022-11-20T12:12:41;2.20;92.70
8888;DHT22;4480;52.370;9.748;2022-11-20T12:15:11;2.30;92.70
8888;DHT22;4480;52.370;9.748;2022-11-20T12:17:39;2.30;92.70
8888;DHT22;4480;52.370;9.748;2022-11-20T12:20:11;2.40;92.60
8888;DHT22;4480;52.370;9.748;2022-11-20T12:22:43;2.40;92.40
8888;DHT22;4480;52.370;9.748;2022-11-20T12:25:18;2.40;92.30
8888;DHT22;4480;52.370;9.748;2022-11-20T12:30:51;2.40;92.30
8888;DHT22;4480;52.370;9.748;2022-11-20T12:33:44;2.40;92.30
8888;DHT22;4480;52.370;9.748;2022-11-20T12:36:22;2.40;92.20
8888;DHT22;4480;52.370;9.748;2022-11-20T12:39:01;2.50;92.10
8888;DHT22;4480;52.370;9.748;2022-11-20T12:41:46;2.60;91.80
8888;DHT22;4480;52.370;9.748;2022-11-20T12:47:49;2.80;91.60
8888;DHT22;4480;52.370;9.748;2022-11-20T12:50:24;2.80;90.40
8888;DHT22;4480;52.370;9.748;2022-11-20T12:52:57;2.80;90.40
8888;DHT22;4480;52.370;9.748;2022-11-20T12:55:36;2.80;90.40
8888;DHT22;4480;52.370;9.748;2022-11-20T12:58:15;2.80;90.30
8888;DHT22;4480;52.370;9.748;2022-11-20T13:00:54;2.70;90.10
8888;DHT22;4480;52.370;9.748;2022-11-20T13:03:34;2.70;90.10
8888;DHT22;4480;52.370;9.748;2022-11-20T13:06:11;2.60;89.80
8888;DHT22;4480;52.370;9.748;2022-11-20T13:08:41;2.60;90.00
8888;DHT22;4480;52.370;9.748;2022-11-20T13:11:15;2.50;90.20
8888;DHT22;4480;52.370;9.748;2022-11-20T13:14:09;2.50;90.30
8888;DHT22;4480;52.370;9.748;2022-11-20T13:16:42;2.50;90.30
8888;DHT22;4480;52.370;9.748;2022-11-20T13:19:13;2.60;90.30
8888;DHT22;4480;52.370;9.748;2022-11-20T13:21:41;2.60;90.20
8888;DHT22;4480;52.370;9.748;2022-11-20T13:24:21;2.60;90.00
8888;DHT22;4480;52.370;9.748;2022-11-20T13:27:00;2.60;89.90
8888;DHT22;4480;52.370;9.748;2022-11-20T13:29:28;2.60;89.60
8888;DHT22;4480;52.370;9.748;2022-11-20T13:32:03;2.50;89.70
8888;DHT22;4480;52.370;9.748;2022-11-20T13:34:31;2.50;89.80
8888;DHT22;4480;52.370;9.748;2022-11-20T13:36:59;2.40;89.90
8888;DHT22;4480;52.370;9.748;2022-11-20T13:39:30;2.40;90.00
8888;DHT22;4480;52.370;9.748;2022-11-20T13:41:59;2.40;90.20
8888;DHT22;4480;52.370;9.748;2022-11-20T13:44:33;2.40;90.20
8888;DHT22;4480;52.370;9.748;2022-11-20T13:47:03;2.50;90.40
8888;DHT22;4480;52.370;9.748;2022-11-20T13:49:32;2.50;90.40
8888;DHT22;4480;52.370;9.748;2022-11-20T13:52:21;2.60;90.40
8888;DHT22;4480;52.370;9.748;2022-11-20T13:55:02;2.60;90.20
8888;DHT22;4480;52.370;9.748;2022-11-20T13:58:01;2.60;90.20
8888;DHT22;4480;52.370;9.748;2022-11-20T14:00:32;2.60;90.20
8888;DHT22;4480;52.370;9.748;2022-11-20T14:03:07;2.50;90.10
8888;DHT22;4480;52.370;9.748;2022-11-20T14:05:37;2.40;90.20
8888;DHT22;4480;52.370;9.748;2022-11-20T14:08:06;2.40;90.50
8888;DHT22;4480;52.370;9.748;2022-11-20T14:10:35;2.40;90.50
8888;DHT22;4480;52.370;9.748;2022-11-20T14:13:10;2.30;90.60
8888;DHT22;4480;52.370;9.748;2022-11-20T14:15:38;2.30;90.90
8888;DHT22;4480;52.370;9.748;2022-11-20T14:18:12;2.30;91.00
8888;DHT22;4480;52.370;9.748;2022-11-20T14:20:40;2.20;91.30
8888;DHT22;4480;52.370;9.748;2022-11-20T14:23:09;2.20;91.50
8888;DHT22;4480;52.370;9.748;2022-11-20T14:25:37;2.20;91.80
8888;DHT22;4480;52.370;9.748;2022-11-20T14:28:11;2.20;91.90
8888;DHT22;4480;52.370;9.748;2022-11-20T14:30:47;2.20;92.00
8888;DHT22;4480;52.370;9.748;2022-11-20T14:33:15;2.20;92.20
8888;DHT22;4480;52.370;9.748;2022-11-20T14:35:45;2.10;92.40
8888;DHT22;4480;52.370;9.748;2022-11-20T14:38:14;2.10;92.90
8888;DHT22;4480;52.370;9.748;2022-11-20T14:40:41;2.10;93.10
8888;DHT22;4480;52.370;9.748;2022-11-20T14:43:18;2.10;93.30
8888;DHT22;4480;52.370;9.748;2022-11-20T14:45:48;2.10;93.40
8888;DHT22;4480;52.370;9.748;2022-11-20T14:48:19;2.10;93.40
8888;DHT22;4480;52.370;9.748;2022-11-20T14:50:47;2.10;93.50
8888;DHT22;4480;52.370;9.748;2022-11-20T14:53:22;2.10;93.80
8888;DHT22;4480;52.370;9.748;2022-11-20T14:55:55;2.10;93.60
8888;DHT22;4480;52.370;9.748;2022-11-20T14:58:24;2.10;93.80
8888;DHT22;4480;52.370;9.748;2022-11-20T15:00:59;2.10;94.10
8888;DHT22;4480;52.370;9.748;2022-11-20T15:03:31;2.00;94.10
8888;DHT22;4480;52.370;9.748;2022-11-20T15:05:59;2.00;94.30
8888;DHT22;4480;52.370;9.748;2022-11-20T15:08:26;2.00;94.50
8888;DHT22;4480;52.370;9.748;2022-11-20T15:10:53;1.90;94.80
8888;DHT22;4480;52.370;9.748;2022-11-20T15:13:26;1.90;95.00
8888;DHT22;4480;52.370;9.748;2022-11-20T15:15:55;1.90;95.20
8888;DHT22;4480;52.370;9.748;2022-11-20T15:18:24;1.90;95.40
8888;DHT22;4480;52.370;9.748;2022-11-20T15:20:55;1.90;95.50
8888;DHT22;4480;52.370;9.748;2022-11-20T15:23:22;1.90;95.70
8888;DHT22;4480;52.370;9.748;2022-11-20T15:25:49;1.90;95.90
8888;DHT22;4480;52.370;9.748;2022-11-20T15:28:19;1.90;96.10
8888;DHT22;4480;52.370;9.748;2022-11-20T15:30:48;1.90;96.20
8888;DHT22;4480;52.370;9.748;2022-11-20T15:33:17;1.90;96.40
8888;DHT22;4480;52.370;9.748;2022-11-20T15:35:44;1.90;96.40
8888;DHT22;4480;52.370;9.748;2022-11-20T15:38:11;1.90;96.40
8888;DHT22;4480;52.370;9.748;2022-11-20T15:40:38;1.80;96.50
8888;DHT22;4480;52.370;9.748;2022-11-20T15:43:05;1.80;96.60
8888;DHT22;4480;52.370;9.748;2022-11-20T15:45:37;1.80;96.80
8888;DHT22;4480;52.370;9.748;2022-11-20T15:48:08;1.80;96.90
8888;DHT22;4480;52.370;9.748;2022-11-20T15:50:39;1.70;97.00
8888;DHT22;4480;52.370;9.748;2022-11-20T15:53:08;1.70;97.10
8888;DHT22;4480;52.370;9.748;2022-11-20T15:55:35;1.60;97.20
8888;DHT22;4480;52.370;9.748;2022-11-20T15:58:02;1.50;97.60
8888;DHT22;4480;52.370;9.748;2022-11-20T16:00:29;1.50;97.80
8888;DHT22;4480;52.370;9.748;2022-11-20T16:02:56;1.40;97.90
8888;DHT22;4480;52.370;9.748;2022-11-20T16:05:23;1.30;98.10
8888;DHT22;4480;52.370;9.748;2022-11-20T16:07:51;1.30;98.30
8888;DHT22;4480;52.370;9.748;2022-11-20T16:10:18;1.20;98.50
8888;DHT22;4480;52.370;9.748;2022-11-20T16:12:44;1.10;98.70
8888;DHT22;4480;52.370;9.748;2022-11-20T16:15:29;1.10;99.00
8888;DHT22;4480;52.370;9.748;2022-11-20T16:18:16;1.00;99.10
8888;DHT22;4480;52.370;9.748;2022-11-20T16:20:43;0.90;99.40
8888;DHT22;4480;52.370;9.748;2022-11-20T16:23:11;0.90;99.70
8888;DHT22;4480;52.370;9.748;2022-11-20T16:25:38;0.80;99.90
8888;DHT22;4480;52.370;9.748;2022-11-20T16:28:05;0.70;99.90
8888;DHT22;4480;52.370;9.748;2022-11-20T16:30:33;0.60;99.90
8888;DHT22;4480;52.370;9.748;2022-11-20T16:33:00;0.60;99.90
8888;DHT22;4480;52.370;9.748;2022-11-20T16:35:27;0.50;99.90
8888;DHT22;4480;52.370;9.748;2022-11-20T16:37:54;0.50;99.90